createdAt,value
2017-12-03T00:02:19.627Z,20.67
2017-12-03T00:04:49.360Z,24.70
2017-12-03T00:07:18.797Z,24.57
2017-12-03T00:09:48.196Z,24.40
2017-12-03T00:12:17.573Z,18.80
2017-12-03T00:14:46.573Z,25.63
2017-12-03T00:17:15.556Z,22.70
2017-12-03T00:19:45.331Z,21.83
2017-12-03T00:22:14.465Z,19.63
2017-12-03T00:24:44.213Z,20.90
2017-12-03T00:27:14.431Z,19.47
2017-12-03T00:29:43.436Z,24.73
2017-12-03T00:32:12.425Z,26.50
2017-12-03T00:34:41.427Z,22.23
2017-12-03T00:37:10.417Z,19.07
2017-12-03T00:39:40.159Z,24.93
2017-12-03T00:42:09.539Z,24.17
2017-12-03T00:44:39.286Z,25.93
2017-12-03T00:47:08.694Z,24.33
2017-12-03T00:49:38.483Z,18.30
2017-12-03T00:52:07.469Z,24.20
2017-12-03T00:54:37.265Z,28.33
2017-12-03T00:57:06.267Z,27.63
2017-12-03T00:59:36.759Z,28.27
2017-12-03T01:02:05.781Z,26.53
2017-12-03T01:04:36.496Z,25.27
2017-12-03T01:07:05.629Z,31.73
2017-12-03T01:09:35.364Z,28.80
2017-12-03T01:12:04.446Z,30.20
2017-12-03T01:14:35.968Z,27.03
2017-12-03T01:17:04.927Z,33.73
2017-12-03T01:19:35.850Z,31.40
2017-12-03T01:22:05.213Z,39.00
2017-12-03T01:24:34.985Z,32.20
2017-12-03T01:27:03.960Z,34.73
2017-12-03T01:29:33.739Z,33.13
2017-12-03T01:32:03.464Z,35.50
2017-12-03T01:34:32.479Z,41.90
2017-12-03T01:37:01.460Z,36.50
2017-12-03T01:39:31.247Z,39.30
2017-12-03T01:42:00.631Z,36.77
2017-12-03T01:44:31.138Z,32.83
2017-12-03T01:47:00.270Z,38.33
2017-12-03T01:49:30.018Z,44.90
2017-12-03T01:51:59.979Z,39.60
2017-12-03T01:54:29.708Z,43.30
2017-12-03T01:56:59.173Z,38.17
2017-12-03T01:59:28.554Z,45.70
2017-12-03T02:01:57.613Z,39.37
2017-12-03T02:04:27.595Z,44.30
2017-12-03T02:06:56.569Z,44.30
2017-12-03T02:09:25.858Z,54.27
2017-12-03T02:11:56.004Z,41.80
2017-12-03T02:14:25.380Z,52.30
2017-12-03T02:16:54.382Z,46.43
2017-12-03T02:19:23.378Z,44.80
2017-12-03T02:21:52.417Z,59.27
2017-12-03T02:24:21.811Z,40.97
2017-12-03T02:26:51.546Z,49.27
2017-12-03T02:29:20.529Z,46.40
2017-12-03T02:31:49.505Z,51.33
2017-12-03T02:34:19.243Z,54.30
2017-12-03T02:36:48.633Z,50.23
2017-12-03T02:39:18.392Z,65.67
2017-12-03T02:41:47.414Z,50.50
2017-12-03T02:44:17.153Z,57.47
2017-12-03T02:46:46.110Z,58.87
2017-12-03T02:49:15.114Z,71.07
2017-12-03T02:51:44.865Z,47.80
2017-12-03T02:54:13.912Z,58.83
2017-12-03T02:56:43.639Z,52.37
2017-12-03T02:59:13.435Z,61.23
2017-12-03T03:01:43.220Z,72.07
2017-12-03T03:04:12.625Z,66.27
2017-12-03T03:06:43.140Z,67.60
2017-12-03T03:09:12.885Z,67.27
2017-12-03T03:11:42.673Z,68.00
2017-12-03T03:14:11.707Z,75.70
2017-12-03T03:16:41.673Z,69.87
2017-12-03T03:19:10.666Z,69.83
2017-12-03T03:21:39.666Z,64.60
2017-12-03T03:24:09.412Z,60.90
2017-12-03T03:26:39.189Z,67.20
2017-12-03T03:29:09.764Z,71.03
2017-12-03T03:31:38.727Z,75.53
2017-12-03T03:34:07.849Z,62.53
2017-12-03T03:36:37.791Z,73.47
2017-12-03T03:39:06.797Z,82.83
2017-12-03T03:41:35.806Z,85.07
2017-12-03T03:44:04.770Z,88.57
2017-12-03T03:46:33.804Z,80.80
2017-12-03T03:49:03.575Z,75.77
2017-12-03T03:51:32.547Z,89.57
2017-12-03T03:54:01.549Z,69.03
2017-12-03T03:56:30.541Z,75.53
2017-12-03T03:58:59.564Z,82.83
2017-12-03T04:01:28.508Z,78.40
2017-12-03T04:03:57.516Z,78.80
2017-12-03T04:06:27.334Z,80.37
2017-12-03T04:08:57.080Z,87.63
2017-12-03T04:11:26.071Z,75.93
2017-12-03T04:13:55.095Z,73.47
2017-12-03T04:16:24.476Z,73.30
2017-12-03T04:18:53.869Z,77.67
2017-12-03T04:21:22.854Z,79.80
2017-12-03T04:23:52.630Z,79.00
2017-12-03T04:26:21.611Z,77.53
2017-12-03T04:28:50.715Z,82.93
2017-12-03T04:31:20.475Z,77.20
2017-12-03T04:33:49.468Z,81.60
2017-12-03T04:36:18.461Z,77.27
2017-12-03T04:38:49.013Z,86.47
2017-12-03T04:41:18.785Z,73.77
2017-12-03T04:43:48.571Z,69.83
2017-12-03T04:46:17.549Z,87.23
2017-12-03T04:48:47.288Z,74.77
2017-12-03T04:51:16.294Z,66.03
2017-12-03T04:53:45.270Z,77.97
2017-12-03T04:56:14.639Z,70.17
2017-12-03T04:58:43.753Z,80.67
2017-12-03T05:01:12.723Z,73.80
2017-12-03T05:03:41.690Z,65.77
2017-12-03T05:06:11.504Z,60.23
2017-12-03T05:08:41.217Z,64.73
2017-12-03T05:11:10.620Z,82.83
2017-12-03T05:13:40.333Z,62.17
2017-12-03T05:16:10.107Z,66.23
2017-12-03T05:18:39.484Z,64.83
2017-12-03T05:21:08.463Z,67.23
2017-12-03T05:23:37.471Z,68.40
2017-12-03T05:26:07.564Z,80.13
2017-12-03T05:28:36.556Z,72.57
2017-12-03T05:31:05.498Z,71.43
2017-12-03T05:33:34.584Z,61.43
2017-12-03T05:36:03.593Z,63.17
2017-12-03T05:38:32.617Z,51.37
2017-12-03T05:41:01.604Z,62.30
2017-12-03T05:43:30.748Z,69.97
2017-12-03T05:45:59.704Z,60.53
2017-12-03T05:48:28.667Z,78.60
2017-12-03T05:50:57.683Z,62.77
2017-12-03T05:53:28.139Z,69.17
2017-12-03T05:55:57.560Z,65.13
2017-12-03T05:58:26.549Z,65.80
2017-12-03T06:00:56.298Z,58.50
2017-12-03T06:03:25.302Z,71.93
2017-12-03T06:05:55.177Z,62.50
2017-12-03T06:08:24.540Z,53.87
2017-12-03T06:10:53.514Z,72.20
2017-12-03T06:13:23.273Z,61.87
2017-12-03T06:15:52.695Z,63.73
2017-12-03T06:18:21.663Z,64.17
2017-12-03T06:20:51.431Z,60.37
2017-12-03T06:23:21.204Z,58.73
2017-12-03T06:25:50.625Z,68.47
2017-12-03T06:28:19.691Z,64.10
2017-12-03T06:30:49.019Z,56.87
2017-12-03T06:33:18.141Z,65.27
2017-12-03T06:35:47.484Z,61.53
2017-12-03T06:38:17.715Z,66.03
2017-12-03T06:40:46.676Z,66.10
2017-12-03T06:43:15.796Z,59.37
2017-12-03T06:45:44.850Z,64.13
2017-12-03T06:48:13.823Z,57.17
2017-12-03T06:50:43.576Z,59.67
2017-12-03T06:53:12.598Z,65.80
2017-12-03T06:55:41.564Z,60.83
2017-12-03T06:58:10.576Z,52.53
2017-12-03T07:00:39.548Z,53.87
2017-12-03T07:03:09.049Z,69.30
2017-12-03T07:05:39.164Z,66.43
2017-12-03T07:08:09.292Z,54.10
2017-12-03T07:10:38.669Z,66.87
2017-12-03T07:13:07.672Z,62.17
2017-12-03T07:15:37.425Z,65.43
2017-12-03T07:18:06.469Z,58.83
2017-12-03T07:20:35.441Z,67.80
2017-12-03T07:23:05.250Z,63.67
2017-12-03T07:25:34.645Z,57.50
2017-12-03T07:28:04.363Z,57.60
2017-12-03T07:30:33.804Z,55.63
2017-12-03T07:33:02.756Z,52.50
2017-12-03T07:35:31.772Z,69.13
2017-12-03T07:38:01.542Z,55.20
2017-12-03T07:40:30.509Z,59.67
2017-12-03T07:42:59.484Z,61.90
2017-12-03T07:45:29.265Z,52.00
2017-12-03T07:47:58.286Z,57.40
2017-12-03T07:50:27.655Z,46.87
2017-12-03T07:52:57.426Z,53.57
2017-12-03T07:55:26.406Z,61.43
2017-12-03T07:57:56.130Z,59.70
2017-12-03T08:00:25.531Z,57.40
2017-12-03T08:02:54.573Z,51.97
2017-12-03T08:05:23.953Z,67.90
2017-12-03T08:07:53.728Z,53.67
2017-12-03T08:10:24.213Z,47.37
2017-12-03T08:12:53.966Z,52.77
2017-12-03T08:15:23.728Z,54.90
2017-12-03T08:17:52.745Z,55.67
2017-12-03T08:20:21.760Z,66.17
2017-12-03T08:22:52.346Z,48.67
2017-12-03T08:25:21.748Z,53.70
2017-12-03T08:27:51.765Z,55.73
2017-12-03T08:30:21.519Z,61.13
2017-12-03T08:32:50.490Z,66.13
2017-12-03T08:35:19.876Z,67.70
2017-12-03T08:37:48.909Z,71.33
2017-12-03T08:40:19.197Z,69.10
2017-12-03T08:42:48.596Z,63.17
2017-12-03T08:45:17.620Z,66.13
2017-12-03T08:47:46.721Z,80.90
2017-12-03T08:50:15.717Z,69.40
2017-12-03T08:52:44.698Z,62.80
2017-12-03T08:55:14.450Z,72.17
2017-12-03T08:57:44.226Z,70.93
2017-12-03T09:00:13.601Z,69.77
2017-12-03T09:02:42.614Z,65.43
2017-12-03T09:05:12.347Z,62.13
2017-12-03T09:07:41.745Z,69.13
2017-12-03T09:10:11.681Z,74.70
2017-12-03T09:12:40.630Z,78.50
2017-12-03T09:15:09.619Z,70.13
2017-12-03T09:17:39.449Z,75.30
2017-12-03T09:20:08.693Z,67.97
2017-12-03T09:22:37.678Z,63.30
2017-12-03T09:25:07.056Z,67.57
2017-12-03T09:27:36.072Z,65.80
2017-12-03T09:30:05.175Z,79.80
2017-12-03T09:32:34.168Z,68.40
2017-12-03T09:35:03.559Z,67.67
2017-12-03T09:37:32.916Z,62.80
2017-12-03T09:40:03.442Z,74.10
2017-12-03T09:42:32.812Z,65.47
2017-12-03T09:45:01.812Z,67.23
2017-12-03T09:47:30.884Z,71.40
2017-12-03T09:50:00.640Z,57.13
2017-12-03T09:52:29.608Z,66.13
2017-12-03T09:54:58.755Z,64.50
2017-12-03T09:57:28.117Z,65.87
2017-12-03T09:59:57.270Z,72.43
2017-12-03T10:02:27.605Z,73.40
2017-12-03T10:04:56.588Z,53.87
2017-12-03T10:07:25.875Z,64.03
2017-12-03T10:09:55.196Z,57.53
2017-12-03T10:12:24.327Z,68.40
2017-12-03T10:14:53.372Z,60.17
2017-12-03T10:17:22.732Z,59.37
2017-12-03T10:19:52.489Z,52.87
2017-12-03T10:22:21.446Z,56.67
2017-12-03T10:24:50.428Z,53.00
2017-12-03T10:27:19.805Z,59.40
2017-12-03T10:29:48.799Z,57.33
2017-12-03T10:32:18.584Z,57.93
2017-12-03T10:34:47.594Z,48.80
2017-12-03T10:37:16.636Z,57.20
2017-12-03T10:39:45.579Z,60.80
2017-12-03T10:42:14.567Z,58.43
2017-12-03T10:44:43.629Z,65.73
2017-12-03T10:47:13.407Z,46.67
2017-12-03T10:49:42.384Z,62.50
2017-12-03T10:52:11.356Z,56.13
2017-12-03T10:54:40.403Z,50.40
2017-12-03T10:57:10.076Z,51.23
2017-12-03T10:59:39.755Z,59.70
2017-12-03T11:02:09.828Z,59.13
2017-12-03T11:04:39.216Z,62.73
2017-12-03T11:07:08.617Z,56.77
2017-12-03T11:09:38.374Z,51.50
2017-12-03T11:12:08.141Z,60.63
2017-12-03T11:14:37.935Z,55.67
2017-12-03T11:17:07.377Z,52.87
2017-12-03T11:19:36.393Z,69.17
2017-12-03T11:22:06.197Z,55.27
2017-12-03T11:24:35.701Z,61.23
2017-12-03T11:27:05.816Z,57.87
2017-12-03T11:29:35.609Z,54.57
2017-12-03T11:32:04.584Z,61.00
2017-12-03T11:34:33.889Z,63.33
2017-12-03T11:37:04.138Z,56.70
2017-12-03T11:39:34.031Z,59.80
2017-12-03T11:42:03.799Z,69.83
2017-12-03T11:44:33.663Z,61.33
2017-12-03T11:47:02.774Z,59.30
2017-12-03T11:49:32.142Z,60.33
2017-12-03T11:52:01.543Z,69.83
2017-12-03T11:54:31.388Z,63.33
2017-12-03T11:57:00.381Z,73.30
2017-12-03T11:59:30.335Z,78.30
2017-12-03T12:01:59.692Z,87.57
2017-12-03T12:04:29.120Z,72.20
2017-12-03T12:06:58.804Z,65.13
2017-12-03T12:09:28.176Z,77.40
2017-12-03T12:11:57.261Z,80.03
2017-12-03T12:14:26.667Z,70.03
2017-12-03T12:16:55.760Z,64.60
2017-12-03T12:19:25.272Z,57.10
2017-12-03T12:21:54.320Z,70.87
2017-12-03T12:24:23.716Z,66.10
2017-12-03T12:26:53.217Z,62.47
2017-12-03T12:29:23.026Z,74.03
2017-12-03T12:31:52.816Z,65.93
2017-12-03T12:34:21.808Z,55.83
2017-12-03T12:36:51.694Z,60.43
2017-12-03T12:39:20.922Z,66.47
2017-12-03T12:41:50.301Z,60.77
2017-12-03T12:44:20.001Z,66.50
2017-12-03T12:46:49.734Z,73.00
2017-12-03T12:49:18.746Z,57.53
2017-12-03T12:51:48.584Z,58.60
2017-12-03T12:54:17.970Z,66.53
2017-12-03T12:56:47.366Z,60.07
2017-12-03T12:59:16.762Z,59.40
2017-12-03T13:01:45.772Z,58.53
2017-12-03T13:04:14.827Z,60.73
2017-12-03T13:06:44.616Z,58.17
2017-12-03T13:09:13.651Z,57.73
2017-12-03T13:11:43.093Z,60.60
2017-12-03T13:14:12.972Z,54.03
2017-12-03T13:16:42.004Z,56.43
2017-12-03T13:19:11.386Z,58.93
2017-12-03T13:21:40.452Z,55.73
2017-12-03T13:24:09.840Z,58.23
2017-12-03T13:26:39.587Z,56.70
2017-12-03T13:29:09.120Z,66.47
2017-12-03T13:31:38.525Z,68.47
2017-12-03T13:34:07.955Z,63.97
2017-12-03T13:36:36.931Z,71.23
2017-12-03T13:39:06.756Z,65.27
2017-12-03T13:41:36.535Z,48.17
2017-12-03T13:44:05.593Z,66.00
2017-12-03T13:46:35.443Z,52.07
2017-12-03T13:49:04.448Z,56.77
2017-12-03T13:51:33.455Z,52.63
2017-12-03T13:54:02.947Z,62.23
2017-12-03T13:56:32.824Z,47.60
2017-12-03T13:59:01.934Z,49.37
2017-12-03T14:01:31.537Z,41.97
2017-12-03T14:04:00.840Z,46.03
2017-12-03T14:06:29.886Z,47.20
2017-12-03T14:08:58.888Z,51.70
2017-12-03T14:11:27.978Z,49.07
2017-12-03T14:13:57.372Z,49.47
2017-12-03T14:16:26.425Z,52.50
2017-12-03T14:18:55.808Z,53.00
2017-12-03T14:21:24.902Z,47.07
2017-12-03T14:23:54.851Z,52.57
2017-12-03T14:26:24.274Z,49.40
2017-12-03T14:28:54.187Z,51.67
2017-12-03T14:31:23.165Z,90.90
2017-12-03T14:33:52.579Z,105.27
2017-12-03T14:36:21.650Z,65.23
2017-12-03T14:38:50.684Z,55.93
2017-12-03T14:41:19.784Z,61.30
2017-12-03T14:43:49.544Z,63.47
2017-12-03T14:46:18.539Z,66.03
2017-12-03T14:48:47.600Z,59.27
2017-12-03T14:51:16.637Z,64.40
2017-12-03T14:53:45.684Z,69.17
2017-12-03T14:56:15.430Z,77.70
2017-12-03T14:58:44.974Z,78.70
2017-12-03T15:01:14.749Z,77.23
2017-12-03T15:03:44.507Z,92.50
2017-12-03T15:06:13.924Z,74.47
2017-12-03T15:08:43.685Z,62.90
2017-12-03T15:11:12.745Z,63.27
2017-12-03T15:13:42.509Z,63.80
2017-12-03T15:16:11.509Z,62.00
2017-12-03T15:18:40.600Z,64.57
2017-12-03T15:21:09.612Z,71.80
2017-12-03T15:23:39.368Z,64.53
2017-12-03T15:26:08.916Z,60.90
2017-12-03T15:28:38.664Z,73.20
2017-12-03T15:31:07.799Z,65.50
2017-12-03T15:33:37.266Z,72.77
2017-12-03T15:36:06.278Z,76.17
2017-12-03T15:38:35.693Z,64.50
2017-12-03T15:41:05.506Z,65.27
2017-12-03T15:43:34.520Z,68.70
2017-12-03T15:46:03.543Z,66.93
2017-12-03T15:48:33.443Z,63.00
2017-12-03T15:51:03.255Z,48.70
2017-12-03T15:53:32.998Z,63.13
2017-12-03T15:56:02.527Z,60.57
2017-12-03T15:58:31.604Z,81.57
2017-12-03T16:01:00.908Z,59.10
2017-12-03T16:03:29.911Z,58.10
2017-12-03T16:05:59.289Z,67.10
2017-12-03T16:08:29.072Z,60.40
2017-12-03T16:10:58.833Z,65.30
2017-12-03T16:13:27.835Z,65.00
2017-12-03T16:15:57.596Z,66.37
2017-12-03T16:18:27.057Z,67.10
2017-12-03T16:20:56.037Z,82.97
2017-12-03T16:23:25.397Z,64.47
2017-12-03T16:25:54.431Z,80.03
2017-12-03T16:28:24.180Z,72.63
2017-12-03T16:30:53.585Z,85.95
2017-12-03T16:33:22.554Z,72.17
2017-12-03T16:35:51.569Z,78.47
2017-12-03T16:38:20.987Z,64.47
2017-12-03T16:40:50.805Z,76.37
2017-12-03T16:43:19.859Z,62.53
2017-12-03T16:45:48.962Z,65.80
2017-12-03T16:48:18.738Z,65.20
2017-12-03T16:50:47.793Z,69.17
2017-12-03T16:53:16.801Z,63.47
2017-12-03T16:55:45.916Z,65.23
2017-12-03T16:58:15.656Z,65.30
2017-12-03T17:00:44.659Z,62.10
2017-12-03T17:03:13.723Z,57.57
2017-12-03T17:05:42.754Z,126.57
2017-12-03T17:08:12.530Z,77.53
2017-12-03T17:10:41.550Z,77.83
2017-12-03T17:13:10.594Z,73.27
2017-12-03T17:15:39.612Z,67.83
2017-12-03T17:18:08.642Z,53.87
2017-12-03T17:20:38.455Z,57.50
2017-12-03T17:23:07.435Z,57.30
2017-12-03T17:25:36.426Z,54.13
2017-12-03T17:28:05.537Z,57.97
2017-12-03T17:30:35.525Z,48.27
2017-12-03T17:33:04.552Z,49.07
2017-12-03T17:35:33.591Z,38.90
2017-12-03T17:38:03.131Z,47.33
2017-12-03T17:40:32.993Z,45.60
2017-12-03T17:43:02.861Z,48.27
2017-12-03T17:45:32.634Z,53.77
2017-12-03T17:48:02.408Z,47.80
2017-12-03T17:50:31.839Z,49.40
2017-12-03T17:53:01.067Z,46.87
2017-12-03T17:55:30.106Z,41.67
2017-12-03T17:57:59.122Z,45.73
2017-12-03T18:00:28.582Z,60.93
2017-12-03T18:02:58.352Z,48.83
2017-12-03T18:05:27.825Z,46.87
2017-12-03T18:07:57.209Z,44.50
2017-12-03T18:10:26.661Z,65.80
2017-12-03T18:12:55.727Z,50.90
2017-12-03T18:15:25.148Z,48.53
2017-12-03T18:17:54.187Z,51.03
2017-12-03T18:20:24.091Z,54.53
2017-12-03T18:22:53.924Z,51.73
2017-12-03T18:25:23.749Z,43.27
2017-12-03T18:27:53.159Z,34.47
2017-12-03T18:30:22.585Z,51.97
2017-12-03T18:32:52.532Z,34.20
2017-12-03T18:35:21.615Z,39.97
2017-12-03T18:37:51.031Z,34.10
2017-12-03T18:40:20.045Z,28.57
2017-12-03T18:42:49.493Z,40.33
2017-12-03T18:45:18.898Z,37.27
2017-12-03T18:47:48.015Z,28.50
2017-12-03T18:50:17.418Z,36.67
2017-12-03T18:52:47.292Z,34.77
2017-12-03T18:55:17.594Z,29.07
2017-12-03T18:57:47.361Z,23.87
2017-12-03T19:00:16.955Z,20.97
2017-12-03T19:02:46.743Z,18.23
2017-12-03T19:05:16.161Z,30.20
2017-12-03T19:07:45.209Z,23.37
2017-12-03T19:10:15.090Z,20.43
2017-12-03T19:12:44.117Z,27.53
2017-12-03T19:15:13.574Z,16.10
2017-12-03T19:17:42.640Z,28.03
2017-12-03T19:20:11.682Z,22.93
2017-12-03T19:22:41.443Z,19.17
2017-12-03T19:25:11.163Z,17.13
2017-12-03T19:27:41.164Z,21.50
2017-12-03T19:30:10.244Z,24.90
2017-12-03T19:32:40.246Z,24.60
2017-12-03T19:35:09.712Z,15.27
2017-12-03T19:37:39.535Z,30.60
2017-12-03T19:40:08.548Z,11.87
2017-12-03T19:42:37.596Z,21.03
2017-12-03T19:45:07.391Z,15.20
2017-12-03T19:47:36.473Z,19.73
2017-12-03T19:50:05.484Z,16.87
2017-12-03T19:52:34.506Z,26.53
2017-12-03T19:55:04.331Z,15.90
2017-12-03T19:57:34.151Z,27.03
2017-12-03T20:00:03.173Z,9.93
2017-12-03T20:02:33.159Z,26.27
2017-12-03T20:05:02.666Z,17.07
2017-12-03T20:07:31.967Z,18.00
2017-12-03T20:10:03.008Z,18.47
2017-12-03T20:12:32.789Z,16.67
2017-12-03T20:15:02.655Z,11.50
2017-12-03T20:17:33.350Z,24.57
2017-12-03T20:20:03.920Z,27.47
2017-12-03T20:22:33.957Z,36.43
2017-12-03T20:25:03.355Z,25.80
2017-12-03T20:27:32.846Z,20.40
2017-12-03T20:30:02.675Z,13.87
2017-12-03T20:32:32.142Z,18.13
2017-12-03T20:35:01.575Z,22.07
2017-12-03T20:37:30.588Z,17.57
2017-12-03T20:39:59.640Z,18.13
2017-12-03T20:42:29.465Z,17.30
2017-12-03T20:44:58.486Z,18.87
2017-12-03T20:47:27.956Z,11.47
2017-12-03T20:49:57.737Z,9.73
2017-12-03T20:52:27.522Z,26.65
2017-12-03T20:54:56.852Z,19.90
2017-12-03T20:57:26.659Z,14.60
2017-12-03T20:59:57.132Z,23.40
2017-12-03T21:02:26.315Z,16.33
2017-12-03T21:04:55.842Z,26.23
2017-12-03T21:07:24.914Z,17.40
2017-12-03T21:09:54.851Z,22.53
2017-12-03T21:12:23.856Z,19.93
2017-12-03T21:14:52.957Z,27.13
2017-12-03T21:17:22.758Z,15.97
2017-12-03T21:22:13.663Z,19.93
2017-12-03T21:24:42.699Z,26.83
2017-12-03T21:27:11.751Z,24.80
2017-12-03T21:29:41.593Z,17.10
2017-12-03T21:32:11.475Z,24.17
2017-12-03T21:34:40.481Z,22.90
2017-12-03T21:37:09.508Z,22.80
2017-12-03T21:39:38.592Z,22.47
2017-12-03T21:42:08.344Z,21.23
2017-12-03T21:44:39.128Z,17.20
2017-12-03T21:47:08.880Z,18.50
2017-12-03T21:49:37.951Z,14.40
2017-12-03T21:52:07.382Z,16.20
2017-12-03T21:54:36.340Z,13.97
2017-12-03T21:57:05.570Z,11.50
2017-12-03T21:59:35.753Z,25.17
2017-12-03T22:02:04.975Z,19.10
2017-12-03T22:04:34.732Z,23.13
2017-12-03T22:07:03.822Z,21.80
2017-12-03T22:09:32.856Z,19.57
2017-12-03T22:12:01.826Z,19.13
2017-12-03T22:14:31.312Z,16.93
2017-12-03T22:17:00.313Z,18.00
2017-12-03T22:19:30.113Z,17.90
2017-12-03T22:21:59.531Z,18.10
2017-12-03T22:24:28.887Z,24.53
2017-12-03T22:26:58.736Z,29.73
2017-12-03T22:29:27.834Z,15.83
2017-12-03T22:31:56.854Z,18.23
2017-12-03T22:34:25.826Z,19.33
2017-12-03T22:36:54.841Z,16.10
2017-12-03T22:39:23.823Z,21.50
2017-12-03T22:41:52.808Z,18.30
2017-12-03T22:44:21.864Z,15.50
2017-12-03T22:46:51.285Z,19.10
2017-12-03T22:49:20.326Z,15.40
2017-12-03T22:51:49.739Z,19.73
2017-12-03T22:54:19.518Z,21.87
2017-12-03T22:56:48.529Z,29.97
2017-12-03T22:59:18.377Z,13.43
2017-12-03T23:01:48.559Z,27.93
2017-12-03T23:04:17.567Z,18.90
2017-12-03T23:06:47.316Z,18.43
2017-12-03T23:09:16.728Z,18.53
2017-12-03T23:11:45.806Z,21.70
2017-12-03T23:14:14.973Z,23.87
2017-12-03T23:16:44.716Z,22.80
2017-12-03T23:19:13.710Z,21.97
2017-12-03T23:21:42.723Z,20.13
2017-12-03T23:24:12.845Z,10.27
2017-12-03T23:26:42.593Z,24.03
2017-12-03T23:29:12.409Z,26.03
2017-12-03T23:31:41.361Z,28.93
2017-12-03T23:34:10.406Z,16.03
2017-12-03T23:36:39.397Z,18.47
2017-12-03T23:39:08.815Z,23.50
2017-12-03T23:41:38.053Z,9.03
2017-12-03T23:44:07.801Z,18.13
2017-12-03T23:46:37.192Z,18.47
2017-12-03T23:49:06.600Z,16.83
2017-12-03T23:51:35.926Z,16.40
2017-12-03T23:54:04.998Z,17.30
2017-12-03T23:56:33.947Z,18.40
2017-12-03T23:59:03.743Z,18.80
